Time;durP1;ratioP1;P1;durP2;ratioP2;P2;SDS_P1;SDS_P2;PMS_P1;PMS_P2;Temp;Humidity;BMP_temperature;BMP_pressure;BME280_temperature;BME280_humidity;BME280_pressure;Samples;Min_cycle;Max_cycle;Signal;HPM_P1;HPM_P2
2023/04/01 00:01:19;;;;;;;;;;;;;;;8.71;100.00;99007.47;5012589;28;1191;-80
2023/04/01 00:03:44;;;;;;;;;;;;;;;8.66;100.00;99006.31;5028936;28;1073;-79
2023/04/01 00:06:11;;;;;;;;;;;;;;;8.64;100.00;99010.84;5009450;28;1145;-79
2023/04/01 00:08:37;;;;;;;;;;;;;;;8.67;100.00;99015.72;5029104;28;1720;-79
2023/04/01 00:11:02;;;;;;;;;;;;;;;8.67;100.00;99010.56;5012024;28;1421;-79
2023/04/01 00:13:27;;;;;;;;;;;;;;;8.72;100.00;99013.47;5025885;28;5044;-79
2023/04/01 00:15:53;;;;;;;;;;;;;;;8.67;100.00;99020.88;5025428;28;1113;-79
2023/04/01 00:18:19;;;;;;;;;;;;;;;8.67;100.00;99013.13;5010233;28;1184;-79
2023/04/01 00:20:45;;;;;;;;;;;;;;;8.63;100.00;99014.41;5028788;28;1085;-79
2023/04/01 00:23:10;;;;;;;;;;;;;;;8.62;100.00;99017.97;5024291;28;1926;-79
2023/04/01 00:25:35;;;;;;;;;;;;;;;8.64;100.00;99021.19;5008558;28;2171;-79
2023/04/01 00:28:01;;;;;;;;;;;;;;;8.75;100.00;99023.47;5027191;28;2375;-79
2023/04/01 00:30:26;;;;;;;;;;;;;;;8.66;100.00;99024.41;5028400;28;1131;-79
2023/04/01 00:32:52;;;;;;;;;;;;;;;8.72;100.00;99023.81;5028290;28;1890;-79
2023/04/01 00:35:17;;;;;;;;;;;;;;;8.65;100.00;99022.81;5021285;28;1944;-80
2023/04/01 00:37:43;;;;;;;;;;;;;;;8.71;100.00;99024.75;5027962;28;1462;-79
2023/04/01 00:40:20;;;;;;;;;;;;;;;8.71;100.00;99027.34;5027317;28;1121;-80
2023/04/01 00:42:45;;;;;;;;;;;;;;;8.72;100.00;99028.97;5027458;28;2070;-79
2023/04/01 00:45:43;;;;;;;;;;;;;;;8.76;100.00;99025.09;5018125;28;1285;-79
2023/04/01 00:48:10;;;;;;;;;;;;;;;8.70;100.00;99036.06;4993133;28;1474;-79
2023/04/01 00:50:36;;;;;;;;;;;;;;;8.69;100.00;99039.63;5027899;28;1101;-79
2023/04/01 00:53:02;;;;;;;;;;;;;;;8.70;100.00;99036.06;5027625;28;1949;-79
2023/04/01 00:55:30;;;;;;;;;;;;;;;8.70;100.00;99043.81;5025676;28;1401;-79
2023/04/01 00:57:56;;;;;;;;;;;;;;;8.67;100.00;99037.19;5027405;28;1162;-79
2023/04/01 01:00:22;;;;;;;;;;;;;;;8.70;100.00;99039.44;5014602;28;1300;-79
2023/04/01 01:02:49;;;;;;;;;;;;;;;8.68;100.00;99038.00;5028146;28;1378;-79
2023/04/01 01:05:15;;;;;;;;;;;;;;;8.68;100.00;99040.59;5007685;28;1155;-79
2023/04/01 01:07:47;;;;;;;;;;;;;;;8.75;100.00;99049.34;5023112;28;1536;-79
2023/04/01 01:10:17;;;;;;;;;;;;;;;8.83;100.00;99045.94;5026683;28;1432;-79
2023/04/01 01:12:46;;;;;;;;;;;;;;;8.79;100.00;99045.47;5013364;28;1895;-79
2023/04/01 01:15:32;;;;;;;;;;;;;;;8.73;100.00;99046.09;5025993;28;4950;-80
2023/04/01 01:17:57;;;;;;;;;;;;;;;8.78;100.00;99049.03;5026561;28;1350;-79
2023/04/01 01:20:25;;;;;;;;;;;;;;;8.70;100.00;99047.22;5027153;28;1431;-80
2023/04/01 01:23:09;;;;;;;;;;;;;;;8.67;100.00;99051.91;5012730;28;1556;-80
2023/04/01 01:25:49;;;;;;;;;;;;;;;8.66;100.00;99056.25;5009987;28;1038;-80
2023/04/01 01:28:21;;;;;;;;;;;;;;;8.67;100.00;99057.06;5027125;28;1093;-79
2023/04/01 01:31:11;;;;;;;;;;;;;;;8.71;100.00;99058.34;5009570;28;1453;-79
2023/04/01 01:33:45;;;;;;;;;;;;;;;8.74;100.00;99055.47;5027192;28;1390;-79
2023/04/01 01:36:12;;;;;;;;;;;;;;;8.71;100.00;99063.53;5021707;28;1463;-79
2023/04/01 01:38:38;;;;;;;;;;;;;;;8.68;100.00;99063.84;5026744;28;2118;-79
2023/04/01 01:41:04;;;;;;;;;;;;;;;8.64;100.00;99060.75;5027159;28;1185;-80
2023/04/01 01:43:31;;;;;;;;;;;;;;;8.66;100.00;99060.59;5026935;28;1116;-80
2023/04/01 01:45:59;;;;;;;;;;;;;;;8.64;100.00;99062.53;5014147;28;1471;-79
2023/04/01 01:48:26;;;;;;;;;;;;;;;8.67;100.00;99072.56;5027097;28;1194;-79
2023/04/01 01:50:52;;;;;;;;;;;;;;;8.61;100.00;99078.38;5011378;28;1332;-79
2023/04/01 01:53:17;;;;;;;;;;;;;;;8.61;100.00;99078.38;5026930;28;1963;-79
2023/04/01 01:55:46;;;;;;;;;;;;;;;8.61;100.00;99073.19;5025319;28;1152;-79
2023/04/01 01:58:11;;;;;;;;;;;;;;;8.60;100.00;99076.72;5027117;28;1141;-79
2023/04/01 02:00:37;;;;;;;;;;;;;;;8.59;100.00;99080.28;5023264;28;1327;-79
2023/04/01 02:03:04;;;;;;;;;;;;;;;8.68;100.00;99074.19;5026101;28;1483;-79
2023/04/01 02:05:30;;;;;;;;;;;;;;;8.60;100.00;99079.31;5024727;28;2440;-79
2023/04/01 02:08:01;;;;;;;;;;;;;;;8.58;100.00;99078.66;5026603;28;955;-80
2023/04/01 02:10:26;;;;;;;;;;;;;;;8.55;100.00;99073.81;5026900;28;1017;-80
2023/04/01 02:12:53;;;;;;;;;;;;;;;8.56;100.00;99081.41;5026290;28;1898;-79
2023/04/01 02:15:20;;;;;;;;;;;;;;;8.50;100.00;99088.00;5022462;28;4936;-79
2023/04/01 02:17:46;;;;;;;;;;;;;;;8.51;100.00;99089.63;5009762;28;1443;-79
2023/04/01 02:20:17;;;;;;;;;;;;;;;8.48;100.00;99089.91;5026429;28;1227;-79
2023/04/01 02:22:44;;;;;;;;;;;;;;;8.49;100.00;99091.56;5012192;28;1460;-79
2023/04/01 02:25:12;;;;;;;;;;;;;;;8.47;100.00;99098.63;5026380;28;1053;-79
2023/04/01 02:27:38;;;;;;;;;;;;;;;8.48;100.00;99097.66;5027979;28;2026;-79
2023/04/01 02:30:04;;;;;;;;;;;;;;;8.43;100.00;99102.50;5030018;28;1224;-79
2023/04/01 02:32:30;;;;;;;;;;;;;;;8.43;100.00;99099.09;5029795;28;1973;-79
2023/04/01 02:34:56;;;;;;;;;;;;;;;8.39;100.00;99101.19;5029715;28;2706;-79
2023/04/01 02:37:21;;;;;;;;;;;;;;;8.39;100.00;99100.38;5011388;28;1182;-79
2023/04/01 02:39:46;;;;;;;;;;;;;;;8.42;100.00;99106.03;5030875;28;1244;-79
2023/04/01 02:42:13;;;;;;;;;;;;;;;8.36;100.00;99101.47;5022157;28;1510;-79
2023/04/01 02:44:38;;;;;;;;;;;;;;;8.34;100.00;99098.22;5019987;28;1445;-79
2023/04/01 02:47:04;;;;;;;;;;;;;;;8.40;100.00;99097.63;5029250;28;1395;-79
2023/04/01 02:49:29;;;;;;;;;;;;;;;8.44;100.00;99104.13;5014830;28;1276;-79
2023/04/01 02:51:54;;;;;;;;;;;;;;;8.33;100.00;99091.44;5029855;28;1882;-79
2023/04/01 02:54:20;;;;;;;;;;;;;;;8.29;100.00;99099.63;5014666;28;1277;-79
2023/04/01 02:56:45;;;;;;;;;;;;;;;8.38;100.00;99104.75;5015765;28;1403;-79
2023/04/01 02:59:10;;;;;;;;;;;;;;;8.25;100.00;99102.50;5028805;28;1123;-79
2023/04/01 03:01:35;;;;;;;;;;;;;;;8.27;100.00;99102.38;5029773;28;1367;-79
2023/04/01 03:04:01;;;;;;;;;;;;;;;8.34;100.00;99113.72;5011647;28;1744;-78
2023/04/01 03:06:26;;;;;;;;;;;;;;;8.25;100.00;99104.28;5029566;28;1417;-79
2023/04/01 03:08:51;;;;;;;;;;;;;;;8.42;100.00;99112.97;5029722;28;1125;-79
2023/04/01 03:11:16;;;;;;;;;;;;;;;8.21;100.00;99114.13;5029754;28;1902;-79
2023/04/01 03:13:41;;;;;;;;;;;;;;;8.19;100.00;99112.66;5029037;28;5063;-78
2023/04/01 03:16:07;;;;;;;;;;;;;;;8.18;100.00;99111.03;5015316;28;1264;-78
2023/04/01 03:18:32;;;;;;;;;;;;;;;8.23;100.00;99117.38;5029367;28;1626;-79
2023/04/01 03:20:57;;;;;;;;;;;;;;;8.25;100.00;99107.69;5029808;28;1350;-78
2023/04/01 03:23:24;;;;;;;;;;;;;;;8.23;100.00;99116.56;5011509;28;1154;-78
2023/04/01 03:25:49;;;;;;;;;;;;;;;8.20;100.00;99119.44;5029776;28;1403;-78
2023/04/01 03:28:15;;;;;;;;;;;;;;;8.18;100.00;99118.78;5016369;28;1440;-79
2023/04/01 03:30:40;;;;;;;;;;;;;;;8.17;100.00;99123.13;5029648;28;2018;-79
2023/04/01 03:33:05;;;;;;;;;;;;;;;8.16;100.00;99120.72;5028286;28;1945;-79
2023/04/01 03:35:31;;;;;;;;;;;;;;;8.17;100.00;99122.31;5028331;28;1103;-79
2023/04/01 03:37:56;;;;;;;;;;;;;;;8.17;100.00;99127.50;5029577;28;1292;-79
2023/04/01 03:40:21;;;;;;;;;;;;;;;8.15;100.00;99129.44;5010901;28;1223;-79
2023/04/01 03:42:46;;;;;;;;;;;;;;;8.12;100.00;99119.38;5037456;28;1265;-79
2023/04/01 03:45:12;;;;;;;;;;;;;;;8.12;100.00;99112.44;5028896;28;1379;-79
2023/04/01 03:47:37;;;;;;;;;;;;;;;8.14;100.00;99125.19;5019831;28;1367;-79
2023/04/01 03:50:03;;;;;;;;;;;;;;;8.16;100.00;99125.88;5028024;28;1057;-79
2023/04/01 03:52:29;;;;;;;;;;;;;;;8.14;100.00;99132.94;5028937;28;2220;-79
2023/04/01 03:54:54;;;;;;;;;;;;;;;8.13;100.00;99126.97;5028993;28;1064;-79
2023/04/01 03:57:19;;;;;;;;;;;;;;;8.16;100.00;99136.22;5013702;28;1622;-79
2023/04/01 03:59:45;;;;;;;;;;;;;;;8.18;100.00;99136.84;5028797;28;1399;-79
2023/04/01 04:02:10;;;;;;;;;;;;;;;8.14;100.00;99127.78;5011973;28;1535;-79
2023/04/01 04:04:35;;;;;;;;;;;;;;;8.13;100.00;99131.31;5028194;28;1134;-79
2023/04/01 04:07:00;;;;;;;;;;;;;;;8.09;100.00;99145.53;5011168;28;1534;-79
2023/04/01 04:09:26;;;;;;;;;;;;;;;8.14;100.00;99141.53;5025322;28;1110;-78
2023/04/01 04:11:51;;;;;;;;;;;;;;;8.12;100.00;99140.03;5020369;28;2021;-79
2023/04/01 04:14:16;;;;;;;;;;;;;;;8.07;100.00;99148.22;5014294;28;4958;-79
2023/04/01 04:16:42;;;;;;;;;;;;;;;8.09;100.00;99148.09;5027408;28;1580;-79
2023/04/01 04:19:07;;;;;;;;;;;;;;;8.05;100.00;99149.34;5028731;28;1112;-79
2023/04/01 04:21:32;;;;;;;;;;;;;;;8.11;100.00;99148.75;5017602;28;1253;-78
2023/04/01 04:24:01;;;;;;;;;;;;;;;8.11;100.00;99153.91;5010216;28;1262;-78
2023/04/01 04:26:26;;;;;;;;;;;;;;;8.15;100.00;99155.25;5026800;28;2368;-79
2023/04/01 04:28:52;;;;;;;;;;;;;;;8.03;100.00;99156.41;5027595;28;1471;-79
2023/04/01 04:31:19;;;;;;;;;;;;;;;8.01;100.00;99163.53;5027122;28;1959;-79
2023/04/01 04:33:44;;;;;;;;;;;;;;;7.99;100.00;99167.06;5028261;28;1170;-78
2023/04/01 04:36:09;;;;;;;;;;;;;;;8.01;100.00;99172.06;5016175;28;1265;-78
2023/04/01 04:38:34;;;;;;;;;;;;;;;8.03;100.00;99166.75;5013365;28;2218;-79
2023/04/01 04:40:59;;;;;;;;;;;;;;;8.07;100.00;99170.66;5017938;28;1123;-78
2023/04/01 04:43:25;;;;;;;;;;;;;;;7.98;100.00;99170.63;5028438;28;1263;-79
2023/04/01 04:45:50;;;;;;;;;;;;;;;7.98;100.00;99170.63;5026774;28;1453;-78
2023/04/01 04:48:18;;;;;;;;;;;;;;;8.01;100.00;99179.81;5027536;28;1176;-79
2023/04/01 04:50:44;;;;;;;;;;;;;;;7.97;100.00;99174.16;5028234;28;1146;-78
2023/04/01 04:53:10;;;;;;;;;;;;;;;7.98;100.00;99186.09;5009405;28;1906;-79
2023/04/01 04:55:35;;;;;;;;;;;;;;;7.97;100.00;99186.22;5008448;28;1353;-79
2023/04/01 04:58:01;;;;;;;;;;;;;;;8.02;100.00;99180.63;5008215;28;1161;-78
2023/04/01 05:00:26;;;;;;;;;;;;;;;7.98;100.00;99183.53;5007731;28;1403;-79
2023/04/01 05:02:51;;;;;;;;;;;;;;;7.99;100.00;99187.72;5008408;28;1179;-78
2023/04/01 05:05:16;;;;;;;;;;;;;;;8.08;100.00;99191.16;5007062;28;1142;-78
2023/04/01 05:07:42;;;;;;;;;;;;;;;8.07;100.00;99193.91;5007261;28;1232;-78
2023/04/01 05:10:07;;;;;;;;;;;;;;;8.02;100.00;99207.25;4997031;28;1161;-79
2023/04/01 05:12:35;;;;;;;;;;;;;;;8.07;100.00;99209.41;5007944;28;1914;-78
2023/04/01 05:15:02;;;;;;;;;;;;;;;8.07;100.00;99214.56;5005107;28;4749;-79
2023/04/01 05:17:28;;;;;;;;;;;;;;;8.07;100.00;99222.31;5007931;28;1374;-78
2023/04/01 05:19:53;;;;;;;;;;;;;;;8.09;100.00;99228.16;5007255;28;1162;-78
2023/04/01 05:22:18;;;;;;;;;;;;;;;8.10;100.00;99216.84;5007262;28;1094;-79
2023/04/01 05:24:43;;;;;;;;;;;;;;;8.14;100.00;99225.91;5006974;28;2395;-79
2023/04/01 05:27:08;;;;;;;;;;;;;;;8.20;100.00;99225.31;5007354;28;1054;-78
2023/04/01 05:29:34;;;;;;;;;;;;;;;8.21;100.00;99232.94;5007462;28;1448;-78
2023/04/01 05:32:00;;;;;;;;;;;;;;;8.25;100.00;99239.41;5006668;28;1897;-78
2023/04/01 05:34:25;;;;;;;;;;;;;;;8.27;100.00;99244.44;5006425;28;1320;-78
2023/04/01 05:36:51;;;;;;;;;;;;;;;8.28;100.00;99240.09;5007266;28;1073;-78
2023/04/01 05:39:17;;;;;;;;;;;;;;;8.32;100.00;99249.97;5007133;28;1200;-78
2023/04/01 05:41:42;;;;;;;;;;;;;;;8.30;100.00;99246.72;5002916;28;1404;-78
2023/04/01 05:44:11;;;;;;;;;;;;;;;8.35;100.00;99260.00;5005523;28;1368;-78
2023/04/01 05:46:36;;;;;;;;;;;;;;;8.35;100.00;99260.00;5008439;28;1061;-78
2023/04/01 05:49:01;;;;;;;;;;;;;;;8.34;100.00;99266.13;5005795;28;1019;-78
2023/04/01 05:51:26;;;;;;;;;;;;;;;8.38;100.00;99269.25;5014878;28;1894;-78
2023/04/01 05:53:52;;;;;;;;;;;;;;;8.43;100.00;99278.19;5007058;28;1068;-78
2023/04/01 05:56:17;;;;;;;;;;;;;;;8.39;100.00;99274.28;5007012;28;1137;-78
2023/04/01 05:58:42;;;;;;;;;;;;;;;8.37;100.00;99273.63;5007035;28;1277;-78
2023/04/01 06:01:09;;;;;;;;;;;;;;;8.41;100.00;99282.69;5006610;28;1427;-78
2023/04/01 06:03:35;;;;;;;;;;;;;;;8.40;100.00;99288.00;5009903;28;1011;-78
2023/04/01 06:06:00;;;;;;;;;;;;;;;8.43;100.00;99292.84;4993313;28;1252;-79
2023/04/01 06:08:26;;;;;;;;;;;;;;;8.43;100.00;99296.28;5010401;28;1091;-79
2023/04/01 06:10:59;;;;;;;;;;;;;;;8.44;100.00;99308.22;5010185;28;1281;-79
2023/04/01 06:13:43;;;;;;;;;;;;;;;8.52;100.00;99297.94;5009249;28;4961;-79
2023/04/01 06:16:11;;;;;;;;;;;;;;;8.50;100.00;99310.22;5010310;28;1474;-79
2023/04/01 06:18:48;;;;;;;;;;;;;;;8.47;100.00;99310.50;5010584;28;1041;-79
2023/04/01 06:21:29;;;;;;;;;;;;;;;8.49;100.00;99313.75;5010931;28;1087;-79
2023/04/01 06:23:54;;;;;;;;;;;;;;;8.47;100.00;99310.50;5011109;28;988;-79
2023/04/01 06:26:29;;;;;;;;;;;;;;;8.50;100.00;99323.13;5009295;28;2138;-79
2023/04/01 06:29:03;;;;;;;;;;;;;;;8.49;100.00;99324.09;5011263;28;1149;-79
2023/04/01 06:31:47;;;;;;;;;;;;;;;8.64;100.00;99331.31;5009418;28;1890;-79
2023/04/01 06:34:18;;;;;;;;;;;;;;;8.51;100.00;99332.50;5010002;28;1441;-79
2023/04/01 06:36:55;;;;;;;;;;;;;;;8.55;100.00;99337.38;5010283;28;1164;-79
2023/04/01 06:39:35;;;;;;;;;;;;;;;8.64;100.00;99341.66;5010286;28;1058;-79
2023/04/01 06:42:04;;;;;;;;;;;;;;;8.57;100.00;99336.25;5010425;28;1085;-79
2023/04/01 06:44:35;;;;;;;;;;;;;;;8.54;100.00;99351.25;5009715;28;1333;-79
2023/04/01 06:47:13;;;;;;;;;;;;;;;8.59;100.00;99354.19;5008325;28;1320;-79
2023/04/01 06:49:50;;;;;;;;;;;;;;;8.57;100.00;99350.97;5012819;28;1211;-78
2023/04/01 06:52:21;;;;;;;;;;;;;;;8.61;100.00;99353.09;5009526;28;1961;-79
2023/04/01 06:54:49;;;;;;;;;;;;;;;8.59;100.00;99356.78;5009534;28;1651;-79
2023/04/01 06:57:29;;;;;;;;;;;;;;;8.65;100.00;99357.00;5009703;28;1180;-79
2023/04/01 06:59:58;;;;;;;;;;;;;;;8.64;100.00;99367.50;5009836;28;1685;-79
2023/04/01 07:02:26;;;;;;;;;;;;;;;8.62;100.00;99364.25;5009714;28;1135;-79
2023/04/01 07:04:53;;;;;;;;;;;;;;;8.61;100.00;99372.97;5009148;28;1155;-79
2023/04/01 07:07:30;;;;;;;;;;;;;;;8.60;100.00;99372.16;5009164;28;1200;-79
2023/04/01 07:09:59;;;;;;;;;;;;;;;8.75;100.00;99375.03;5008654;28;1203;-79
2023/04/01 07:12:30;;;;;;;;;;;;;;;8.60;100.00;99376.50;5012585;28;1965;-79
2023/04/01 07:14:58;;;;;;;;;;;;;;;8.64;100.00;99383.00;5007017;28;4855;-79
2023/04/01 07:17:26;;;;;;;;;;;;;;;8.60;100.00;99387.66;5009667;28;1089;-79
2023/04/01 07:20:26;;;;;;;;;;;;;;;8.62;100.00;99392.69;5008290;28;1022;-78
2023/04/01 07:22:56;;;;;;;;;;;;;;;8.61;100.00;99398.81;4956423;28;1422;-79
2023/04/01 07:25:25;;;;;;;;;;;;;;;8.59;100.00;99408.47;5008472;28;1095;-79
2023/04/01 07:27:52;;;;;;;;;;;;;;;8.62;100.00;99409.00;5009476;28;1348;-79
2023/04/01 07:30:22;;;;;;;;;;;;;;;8.64;100.00;99408.84;5006498;28;1291;-79
2023/04/01 07:33:01;;;;;;;;;;;;;;;8.65;100.00;99423.38;5007725;28;1930;-80
2023/04/01 07:35:29;;;;;;;;;;;;;;;8.78;100.00;99416.09;4997623;28;1124;-79
2023/04/01 07:38:04;;;;;;;;;;;;;;;8.56;100.00;99421.69;5008957;28;1176;-79
2023/04/01 07:40:38;;;;;;;;;;;;;;;8.55;100.00;99422.66;5007024;28;1196;-79
2023/04/01 07:43:09;;;;;;;;;;;;;;;8.56;100.00;99426.88;5003950;28;1578;-79
2023/04/01 07:45:37;;;;;;;;;;;;;;;8.54;100.00;99429.56;5006739;28;1368;-81
2023/04/01 07:48:05;;;;;;;;;;;;;;;8.57;100.00;99441.41;5007038;28;1125;-79
2023/04/01 07:50:30;;;;;;;;;;;;;;;8.52;100.00;99442.66;5008392;28;1083;-79
2023/04/01 07:53:15;;;;;;;;;;;;;;;8.52;100.00;99447.81;5007100;28;1952;-79
2023/04/01 07:55:51;;;;;;;;;;;;;;;8.49;100.00;99448.13;4995771;28;1466;-79
2023/04/01 07:58:23;;;;;;;;;;;;;;;8.52;100.00;99458.16;5008033;28;1634;-80
2023/04/01 08:00:57;;;;;;;;;;;;;;;8.52;100.00;99463.31;5008457;28;1641;-79
2023/04/01 08:03:43;;;;;;;;;;;;;;;8.53;100.00;99464.13;5007771;28;1526;-79
2023/04/01 08:06:19;;;;;;;;;;;;;;;8.56;100.00;99463.03;5007350;28;1200;-79
2023/04/01 08:08:52;;;;;;;;;;;;;;;8.56;100.00;99473.38;5008472;28;1532;-79
2023/04/01 08:11:20;;;;;;;;;;;;;;;8.60;100.00;99470.38;5007279;28;2385;-78
2023/04/01 08:14:03;;;;;;;;;;;;;;;8.59;100.00;99478.25;5007218;28;4779;-78
2023/04/01 08:16:31;;;;;;;;;;;;;;;8.63;100.00;99484.75;5007761;28;1377;-79
2023/04/01 08:18:59;;;;;;;;;;;;;;;8.76;100.00;99482.63;5004449;28;1320;-79
2023/04/01 08:21:35;;;;;;;;;;;;;;;8.67;100.00;99481.75;5007134;28;1527;-79
2023/04/01 08:24:11;;;;;;;;;;;;;;;8.65;100.00;99495.75;5008303;28;1396;-79
2023/04/01 08:26:41;;;;;;;;;;;;;;;8.86;100.00;99501.47;5007700;28;1538;-78
2023/04/01 08:29:06;;;;;;;;;;;;;;;8.68;100.00;99498.88;5008134;28;1635;-79
2023/04/01 08:31:43;;;;;;;;;;;;;;;8.73;100.00;99511.38;5003464;28;1886;-79
2023/04/01 08:34:14;;;;;;;;;;;;;;;8.75;100.00;99514.63;5007476;28;1201;-78
2023/04/01 08:36:43;;;;;;;;;;;;;;;8.72;100.00;99517.50;5008167;28;1201;-78
2023/04/01 08:39:27;;;;;;;;;;;;;;;8.73;100.00;99511.38;5005888;28;1244;-79
2023/04/01 08:42:11;;;;;;;;;;;;;;;8.77;100.00;99518.69;5008536;28;1514;-78
2023/04/01 08:45:04;;;;;;;;;;;;;;;8.79;100.00;99521.13;5004289;28;1588;-79
2023/04/01 08:47:39;;;;;;;;;;;;;;;8.78;100.00;99525.47;5005938;28;1396;-79
2023/04/01 08:50:27;;;;;;;;;;;;;;;8.79;100.00;99523.72;5006926;28;1272;-79
2023/04/01 08:53:00;;;;;;;;;;;;;;;8.85;100.00;99536.06;5002597;28;1898;-79
2023/04/01 08:55:28;;;;;;;;;;;;;;;9.07;100.00;99534.81;5005761;28;1432;-79
2023/04/01 08:58:22;;;;;;;;;;;;;;;8.94;100.00;99545.50;5005311;28;1848;-79
2023/04/01 09:00:52;;;;;;;;;;;;;;;8.95;100.00;99541.97;4999318;28;1461;-79
2023/04/01 09:03:40;;;;;;;;;;;;;;;9.07;100.00;99549.53;5007696;28;1249;-79
2023/04/01 09:06:13;;;;;;;;;;;;;;;9.00;100.00;99552.72;5006453;28;1312;-79
2023/04/01 09:08:44;;;;;;;;;;;;;;;9.04;100.00;99546.25;4989282;28;2175;-80
2023/04/01 09:11:20;;;;;;;;;;;;;;;9.04;100.00;99556.59;5006632;28;1321;-81
2023/04/01 09:14:04;;;;;;;;;;;;;;;9.23;100.00;99565.19;5007006;28;4919;-81
2023/04/01 09:16:48;;;;;;;;;;;;;;;9.14;100.00;99561.72;5006882;28;1200;-79
2023/04/01 09:19:31;;;;;;;;;;;;;;;9.08;100.00;99571.84;5005405;28;1271;-79
2023/04/01 09:22:03;;;;;;;;;;;;;;;9.18;100.00;99567.44;5007169;28;1297;-80
2023/04/01 09:24:46;;;;;;;;;;;;;;;9.12;100.00;99574.00;5007136;28;1710;-79
2023/04/01 09:27:25;;;;;;;;;;;;;;;9.12;100.00;99588.69;5005533;28;1431;-80
2023/04/01 09:29:53;;;;;;;;;;;;;;;9.24;100.00;99592.72;5006829;28;1413;-80
2023/04/01 09:32:31;;;;;;;;;;;;;;;9.12;100.00;99593.84;5008644;28;2075;-80
2023/04/01 09:35:02;;;;;;;;;;;;;;;9.10;100.00;99606.13;4990505;28;1298;-80
2023/04/01 09:37:27;;;;;;;;;;;;;;;9.03;100.00;99601.53;5004509;28;1473;-80
2023/04/01 09:40:08;;;;;;;;;;;;;;;9.04;100.00;99603.16;5007725;28;1315;-80
2023/04/01 09:42:44;;;;;;;;;;;;;;;9.13;100.00;99611.03;5013890;28;1503;-80
2023/04/01 09:45:32;;;;;;;;;;;;;;;9.11;100.00;99615.50;5006054;28;1397;-80
2023/04/01 09:48:16;;;;;;;;;;;;;;;9.04;100.00;99617.88;5006592;28;1468;-80
2023/04/01 09:50:50;;;;;;;;;;;;;;;9.02;100.00;99612.03;5006742;28;1245;-82
2023/04/01 09:53:15;;;;;;;;;;;;;;;9.04;100.00;99618.69;4998310;28;1898;-80
2023/04/01 09:55:46;;;;;;;;;;;;;;;9.03;100.00;99617.06;5005891;28;1336;-80
2023/04/01 09:58:35;;;;;;;;;;;;;;;9.01;100.00;99624.16;5004870;28;1286;-80
2023/04/01 10:01:27;;;;;;;;;;;;;;;9.04;100.00;99626.44;5007031;28;1340;-79
2023/04/01 10:04:08;;;;;;;;;;;;;;;8.98;100.00;99619.25;5007154;28;2041;-79
2023/04/01 10:07:08;;;;;;;;;;;;;;;8.99;100.00;99628.63;5005985;28;1281;-79
2023/04/01 10:09:52;;;;;;;;;;;;;;;9.00;100.00;99632.88;4965599;28;1481;-79
2023/04/01 10:12:36;;;;;;;;;;;;;;;9.11;100.00;99633.63;4996443;28;1898;-79
2023/04/01 10:15:20;;;;;;;;;;;;;;;9.07;100.00;99647.81;5006156;28;4731;-80
2023/04/01 10:17:49;;;;;;;;;;;;;;;9.07;100.00;99635.69;5007101;28;1388;-79
2023/04/01 10:20:14;;;;;;;;;;;;;;;9.08;100.00;99644.25;5003162;28;2349;-79
2023/04/01 10:22:50;;;;;;;;;;;;;;;9.09;100.00;99645.88;5006140;28;1248;-79
2023/04/01 10:25:24;;;;;;;;;;;;;;;9.11;100.00;99647.34;5003142;28;1624;-79
2023/04/01 10:28:08;;;;;;;;;;;;;;;9.25;100.00;99651.25;5006234;28;1309;-79
2023/04/01 10:30:52;;;;;;;;;;;;;;;9.21;100.00;99645.53;5004794;28;1228;-79
2023/04/01 10:33:37;;;;;;;;;;;;;;;9.22;100.00;99656.69;5004728;28;1949;-79
2023/04/01 10:36:26;;;;;;;;;;;;;;;9.33;100.00;99648.72;5005121;28;1153;-79
2023/04/01 10:38:51;;;;;;;;;;;;;;;9.29;100.00;99658.59;4989413;28;1464;-79
2023/04/01 10:41:29;;;;;;;;;;;;;;;9.28;100.00;99656.13;5005818;28;1437;-79
2023/04/01 10:43:55;;;;;;;;;;;;;;;9.41;100.00;99658.38;5006127;28;1239;-79
2023/04/01 10:46:40;;;;;;;;;;;;;;;9.43;100.00;99659.84;5005597;28;1428;-79
2023/04/01 10:49:05;;;;;;;;;;;;;;;9.35;100.00;99656.34;5007271;28;1448;-79
2023/04/01 10:51:46;;;;;;;;;;;;;;;9.41;100.00;99666.94;5009448;28;1240;-79
2023/04/01 10:54:15;;;;;;;;;;;;;;;9.34;100.00;99663.28;5008247;28;1209;-79
2023/04/01 10:57:02;;;;;;;;;;;;;;;9.38;100.00;99664.63;5009334;28;1381;-79
2023/04/01 10:59:36;;;;;;;;;;;;;;;9.35;100.00;99661.53;5009072;28;1638;-79
2023/04/01 11:02:20;;;;;;;;;;;;;;;9.36;100.00;99669.16;5006304;28;2053;-79
2023/04/01 11:05:04;;;;;;;;;;;;;;;9.45;100.00;99668.25;5006639;28;1226;-79
2023/04/01 11:07:43;;;;;;;;;;;;;;;9.38;100.00;99677.56;5008946;28;1479;-79
2023/04/01 11:10:08;;;;;;;;;;;;;;;9.44;100.00;99674.41;5008791;28;1207;-80
2023/04/01 11:12:43;;;;;;;;;;;;;;;9.35;100.00;99680.47;5009117;28;1902;-79
2023/04/01 11:15:08;;;;;;;;;;;;;;;9.34;100.00;99681.41;5008577;28;4930;-80
2023/04/01 11:17:42;;;;;;;;;;;;;;;9.38;100.00;99687.94;5009847;28;1505;-80
2023/04/01 11:20:26;;;;;;;;;;;;;;;9.34;100.00;99686.59;5008733;28;1266;-80
2023/04/01 11:23:10;;;;;;;;;;;;;;;9.31;100.00;99692.06;5000520;28;1122;-81
2023/04/01 11:25:54;;;;;;;;;;;;;;;9.40;100.00;99696.34;5004496;28;1152;-80
2023/04/01 11:28:22;;;;;;;;;;;;;;;9.38;100.00;99703.47;5007735;28;1073;-80
2023/04/01 11:31:02;;;;;;;;;;;;;;;9.42;100.00;99699.63;5009563;28;1001;-81
2023/04/01 11:33:30;;;;;;;;;;;;;;;9.43;100.00;99711.59;5009517;28;1890;-79
2023/04/01 11:36:06;;;;;;;;;;;;;;;9.44;100.00;99710.63;5006607;28;1340;-79
2023/04/01 11:38:34;;;;;;;;;;;;;;;9.56;100.00;99717.25;5008226;28;1200;-79
2023/04/01 11:41:13;;;;;;;;;;;;;;;9.79;100.00;99716.81;5009269;28;1150;-80
2023/04/01 11:43:38;;;;;;;;;;;;;;;9.57;100.00;99724.03;5006865;28;1240;-80
2023/04/01 11:46:19;;;;;;;;;;;;;;;9.58;100.00;99725.69;5007869;28;1378;-79
2023/04/01 11:49:03;;;;;;;;;;;;;;;9.60;100.00;99727.31;5008748;28;1227;-80
2023/04/01 11:51:28;;;;;;;;;;;;;;;9.74;100.00;99729.38;5007663;28;1395;-80
2023/04/01 11:54:06;;;;;;;;;;;;;;;9.75;100.00;99736.22;5008755;28;2013;-79
2023/04/01 11:56:43;;;;;;;;;;;;;;;9.78;100.00;99738.50;4994412;28;2193;-80
2023/04/01 11:59:27;;;;;;;;;;;;;;;9.78;100.00;99735.91;5007181;28;1403;-81
2023/04/01 12:02:12;;;;;;;;;;;;;;;9.73;100.00;99738.13;5003317;28;1166;-80
2023/04/01 12:04:40;;;;;;;;;;;;;;;9.76;100.00;99748.19;5007596;28;1879;-80
2023/04/01 12:07:15;;;;;;;;;;;;;;;9.83;100.00;99747.47;5007720;28;1302;-80
2023/04/01 12:10:09;;;;;;;;;;;;;;;9.89;100.00;99753.03;5006617;28;1600;-79
2023/04/01 12:12:42;;;;;;;;;;;;;;;9.90;100.00;99749.47;4981831;28;1961;-80
2023/04/01 12:15:23;;;;;;;;;;;;;;;9.95;100.00;99763.59;5006791;28;4801;-80
2023/04/01 12:17:53;;;;;;;;;;;;;;;10.00;100.00;99752.81;5002901;28;1396;-80
2023/04/01 12:20:18;;;;;;;;;;;;;;;10.09;100.00;99770.88;5006304;28;1682;-79
2023/04/01 12:22:43;;;;;;;;;;;;;;;10.10;100.00;99772.50;5004835;28;1681;-79
2023/04/01 12:25:27;;;;;;;;;;;;;;;10.13;100.00;99770.56;5004250;28;1515;-79
2023/04/01 12:27:56;;;;;;;;;;;;;;;10.15;100.00;99771.22;5001449;28;1311;-79
2023/04/01 12:30:30;;;;;;;;;;;;;;;10.14;100.00;99782.56;5007044;28;1479;-80
2023/04/01 12:33:04;;;;;;;;;;;;;;;10.15;100.00;99784.19;5003323;28;1987;-79
2023/04/01 12:35:53;;;;;;;;;;;;;;;10.11;100.00;99784.50;5007196;28;1411;-80
2023/04/01 12:38:35;;;;;;;;;;;;;;;10.20;100.00;99787.13;5007931;28;1167;-80
2023/04/01 12:41:07;;;;;;;;;;;;;;;10.05;100.00;99795.44;5007406;28;1190;-79
2023/04/01 12:43:50;;;;;;;;;;;;;;;10.02;100.00;99785.34;5007282;28;1257;-80
2023/04/01 12:46:23;;;;;;;;;;;;;;;10.07;100.00;99793.50;5005048;28;1139;-79
2023/04/01 12:49:03;;;;;;;;;;;;;;;10.02;100.00;99800.91;5006340;28;1577;-80
2023/04/01 12:51:54;;;;;;;;;;;;;;;9.99;100.00;99808.97;5006550;28;1497;-80
2023/04/01 12:54:22;;;;;;;;;;;;;;;9.99;100.00;99806.38;5007202;28;2146;-80
2023/04/01 12:57:02;;;;;;;;;;;;;;;9.96;100.00;99811.03;5006294;28;1477;-80
2023/04/01 12:59:51;;;;;;;;;;;;;;;9.98;100.00;99815.13;5007387;28;1230;-80
2023/04/01 13:02:16;;;;;;;;;;;;;;;10.01;100.00;99812.22;4976944;28;1445;-80
2023/04/01 13:04:44;;;;;;;;;;;;;;;10.05;100.00;99816.16;5007012;28;1568;-80
2023/04/01 13:07:19;;;;;;;;;;;;;;;10.05;100.00;99813.56;5007506;28;1195;-80
2023/04/01 13:09:47;;;;;;;;;;;;;;;10.05;100.00;99816.16;5005895;28;1469;-80
2023/04/01 13:12:31;;;;;;;;;;;;;;;10.08;100.00;99826.22;5009580;28;1930;-80
2023/04/01 13:15:05;;;;;;;;;;;;;;;10.08;100.00;99831.41;5006981;28;4845;-80
2023/04/01 13:17:38;;;;;;;;;;;;;;;10.08;100.00;99836.59;5007672;28;1519;-80